• Join FlightAware (Why Join?)
  • Login
  • US Flag 
03:34AM EDT


 

Airport Tracker/Info


-or-


 

Live Flight TrackerFlight Track Log ✈ SWA407 ✈ 04-Apr-2013 ✈ KBNA - KTPA

Flight Track Log - Related Links

Times and Time Zones

All times are in EDT time to prevent confusion due to time zone crossing. See the SWA407 flight status page for this flight to view local times or setup timezone preferences in your user account.

Time Position Orientation Groundspeed Altitude Reporting Facility
EDT Latitude Longitude Course Direction KTS MPH feet Rate Location/Type
01:17PM 36.1333 -86.6500 360° North 147 169 1,200  Level Nashville TRACON
01:18PM 36.1500 -86.6500 360° North 162 186 1,800 2,040 Climbing Nashville TRACON
01:19PM 36.1667 -86.5833 73° East 215 247 3,900 2,280 Climbing Nashville TRACON
01:20PM 36.1000 -86.5667 169° South 269 310 6,400 3,000 Climbing Nashville TRACON
01:20PM 36.0544 -86.5547 168° South 271 312 8,400 3,180 Climbing Memphis Center
01:21PM 35.9828 -86.5325 166° South 295 339 11,200 2,400 Climbing Memphis Center
01:22PM 35.9008 -86.5131 169° South 316 364 13,300 2,640 Climbing Memphis Center
01:24PM 35.7011 -86.4561 167° South 365 420 19,200 2,580 Climbing Memphis Center
01:27PM 35.4286 -86.4014 171° South 401 461 24,800 2,160 Climbing Atlanta Center
01:28PM 35.3167 -86.3550 161° South 417 480 26,700 1,740 Climbing Atlanta Center
01:29PM 35.2053 -86.2933 156° South 422 486 28,400 1,680 Climbing Atlanta Center
01:30PM 35.0958 -86.2319 155° Southeast 430 495 30,100 1,860 Climbing Atlanta Center
01:31PM 34.9842 -86.1733 157° South 438 504 32,200 2,040 Climbing Atlanta Center
01:32PM 34.8744 -86.1275 161° South 425 489 34,200 1,860 Climbing Atlanta Center
01:33PM 34.7686 -86.0819 161° South 420 483 36,000 1,620 Climbing Atlanta Center
01:34PM 34.6650 -86.0389 161° South 402 463 37,500 1,140 Climbing Atlanta Center
01:35PM 34.5614 -85.9936 160° South 397 457 38,300 600 Climbing Atlanta Center
01:36PM 34.4578 -85.9508 161° South 397 457 38,700 300 Climbing Atlanta Center
01:37PM 34.3542 -85.9058 160° South 402 463 39,000 120 Climbing Atlanta Center
01:38PM 34.2442 -85.8606 161° South 402 463 39,000  Level Atlanta Center
01:39PM 34.1406 -85.8158 160° South 402 463 39,000  Level Atlanta Center
01:40PM 34.0367 -85.7786 163° South 402 463 39,000  Level Atlanta Center
01:41PM 33.9286 -85.7336 161° South 397 457 39,000  Level Atlanta Center
01:42PM 33.8269 -85.6917 161° South 403 464 39,000  Level Atlanta Center
01:43PM 33.7233 -85.6472 160° South 398 458 39,000  Level Atlanta Center
01:44PM 33.6153 -85.6028 161° South 398 458 39,000  Level Atlanta Center
01:45PM 33.5136 -85.5611 161° South 399 459 39,000  Level Atlanta Center
01:46PM 33.4075 -85.5194 162° South 399 459 39,000  Level Atlanta Center
01:47PM 33.2997 -85.4728 160° South 399 459 39,000  Level Atlanta Center
01:48PM 33.1978 -85.4314 161° South 405 466 39,000  Level Atlanta Center
01:49PM 33.1042 -85.3928 161° South 394 453 39,000 -540 Level Atlanta Center
01:50PM 32.9942 -85.3417 159° South 394 453 38,000 -960 Descending Atlanta Center
01:51PM 32.8944 -85.3006 161° South 380 437 37,100 -540 Descending Atlanta Center
01:52PM 32.7906 -85.2594 162° South 386 444 37,000 -60 Descending Atlanta Center
01:53PM 32.6886 -85.2161 160° South 391 450 37,000  Level Atlanta Center
01:54PM 32.5783 -85.1728 162° South 401 461 37,000  Level Atlanta Center
01:55PM 32.4764 -85.1294 160° South 401 461 37,000  Level Atlanta Center
01:56PM 32.3747 -85.0889 161° South 393 452 37,000  Level Atlanta Center
01:57PM 32.2706 -85.0486 162° South 399 459 37,000  Level Atlanta Center
01:58PM 32.1811 -85.0181 164° South 399 459 37,000  Level Atlanta Center
01:59PM 32.0867 -84.9769 160° South 393 452 37,000  Level Jacksonville Center
02:00PM 31.9872 -84.9353 160° South 398 458 37,000  Level Jacksonville Center
02:01PM 31.8836 -84.8939 161° South 398 458 37,000  Level Jacksonville Center
02:02PM 31.7797 -84.8550 162° South 392 451 37,000  Level Jacksonville Center
02:03PM 31.6781 -84.8139 161° South 392 451 37,000  Level Jacksonville Center
02:04PM 31.5742 -84.7728 161° South 392 451 37,000  Level Jacksonville Center
02:05PM 31.4581 -84.7264 161° South 404 465 37,000  Level Jacksonville Center
02:06PM 31.3522 -84.6856 162° South 404 465 37,000  Level Jacksonville Center
02:07PM 31.2483 -84.6472 162° South 404 465 37,000  Level Jacksonville Center
02:08PM 31.1422 -84.6064 162° South 404 465 37,000  Level Jacksonville Center
02:09PM 31.0406 -84.5631 160° South 404 465 37,000  Level Jacksonville Center
02:10PM 30.9389 -84.5250 162° South 404 465 37,000  Level Jacksonville Center
02:11PM 30.8350 -84.4844 161° South 398 458 37,000  Level Jacksonville Center
02:12PM 30.7311 -84.4442 162° South 398 458 37,000  Level Jacksonville Center
02:13PM 30.6314 -84.4039 161° South 398 458 37,000  Level Jacksonville Center
02:14PM 30.5397 -84.3664 161° South 387 445 37,000  Level Jacksonville Center
02:15PM 30.4444 -84.3022 150° Southeast 387 445 37,000  Level Jacksonville Center
02:16PM 30.3514 -84.2406 150° Southeast 387 445 37,000  Level Jacksonville Center
02:17PM 30.2433 -84.1717 151° Southeast 392 451 37,000  Level Jacksonville Center
02:18PM 30.1500 -84.1106 150° Southeast 392 451 37,000 -60 Level Jacksonville Center
02:19PM 30.0506 -84.0467 151° Southeast 392 451 36,900 -600 Descending Jacksonville Center
02:20PM 29.9550 -83.9833 150° Southeast 392 451 35,900 -960 Descending Jacksonville Center
02:21PM 29.8594 -83.9200 150° Southeast 397 457 35,000 -480 Descending Jacksonville Center
02:22PM 29.7597 -83.8567 151° Southeast 397 457 35,000  Level Jacksonville Center
02:23PM 29.6600 -83.7936 151° Southeast 402 463 35,000  Level Jacksonville Center
02:24PM 29.5603 -83.7283 150° Southeast 408 470 35,000 -1,200 Level Jacksonville Center
02:25PM 29.4603 -83.6653 151° Southeast 408 470 32,700 -2,460 Descending Jacksonville Center
02:26PM 29.3586 -83.6003 151° Southeast 413 475 30,100 -2,400 Descending Jacksonville Center
02:27PM 29.2608 -83.5353 150° Southeast 413 475 27,900 -1,920 Descending Jacksonville Center
02:28PM 29.1586 -83.4728 152° Southeast 413 475 26,300 -1,260 Descending Jacksonville Center
02:29PM 29.0631 -83.4106 150° Southeast 418 481 25,400 -1,020 Descending Jacksonville Center
02:30PM 28.9650 -83.3483 151° Southeast 418 481 24,300 -1,680 Descending Jacksonville Center
02:31PM 28.8653 -83.2814 150° Southeast 413 475 22,100 -2,220 Descending Jacksonville Center
02:32PM 28.7714 -83.2289 154° Southeast 403 464 19,900 -2,160 Descending Jacksonville Center
02:33PM 28.6756 -83.1669 150° Southeast 398 458 17,800 -2,340 Descending Jacksonville Center
02:33PM 28.6000 -83.1167 150° Southeast 385 443 15,900 -2,340 Descending Tampa TRACON
02:34PM 28.5000 -83.0500 150° Southeast 381 438 13,800 -1,920 Descending Tampa TRACON
02:35PM 28.4167 -83.0000 152° Southeast 363 418 12,100 -1,380 Descending Tampa TRACON
02:36PM 28.3333 -82.9500 152° Southeast 326 375 11,100 -1,200 Descending Tampa TRACON
02:37PM 28.2667 -82.8833 139° Southeast 333 383 9,800 -1,440 Descending Tampa TRACON
02:38PM 28.2833 -82.7667 81° East 328 377 8,300 -1,680 Descending Tampa TRACON
02:39PM 28.2500 -82.6833 114° Southeast 314 361 6,500 -1,740 Descending Tampa TRACON
02:40PM 28.2333 -82.5833 101° East 304 350 4,900 -1,560 Descending Tampa TRACON
02:41PM 28.1833 -82.5333 139° Southeast 260 299 3,400 -1,200 Descending Tampa TRACON
02:42PM 28.1167 -82.5167 168° South 210 242 2,500 -840 Descending Tampa TRACON
02:43PM 28.0833 -82.5333 204° Southwest 162 186 1,800 -780 Descending Tampa TRACON
02:44PM 28.0333 -82.5333 180° South 140 161 1,000 -840 Descending Tampa TRACON